createdAt,value
2022-09-11T00:00:13.002Z,84.11
2022-09-11T00:03:02.212Z,84.18
2022-09-11T00:05:31.691Z,84.33
2022-09-11T00:08:00.858Z,84.06
2022-09-11T00:10:30.059Z,84.30
2022-09-11T00:12:59.838Z,84.13
2022-09-11T00:15:30.492Z,84.12
2022-09-11T00:17:59.699Z,84.08
2022-09-11T00:20:29.157Z,84.22
2022-09-11T00:22:58.436Z,84.10
2022-09-11T00:25:27.585Z,84.32
2022-09-11T00:27:57.347Z,84.49
2022-09-11T00:30:26.742Z,84.28
2022-09-11T00:32:57.785Z,84.18
2022-09-11T00:35:27.477Z,84.47
2022-09-11T00:37:57.126Z,84.21
2022-09-11T00:40:26.428Z,84.16
2022-09-11T00:42:57.537Z,83.96
2022-09-11T00:45:29.521Z,83.94
2022-09-11T00:48:01.312Z,84.17
2022-09-11T00:50:32.719Z,84.04
2022-09-11T00:53:09.939Z,83.86
2022-09-11T00:55:42.594Z,83.68
2022-09-11T00:58:16.576Z,83.80
2022-09-11T01:00:47.083Z,83.67
2022-09-11T01:03:19.511Z,83.85
2022-09-11T01:05:49.582Z,83.99
2022-09-11T01:08:20.912Z,83.96
2022-09-11T01:11:03.845Z,83.87
2022-09-11T01:13:39.944Z,83.74
2022-09-11T01:16:19.168Z,83.74
2022-09-11T01:19:01.088Z,83.57
2022-09-11T01:21:56.724Z,83.72
2022-09-11T01:24:40.983Z,83.81
2022-09-11T01:27:51.036Z,83.61
2022-09-11T01:30:22.927Z,83.91
2022-09-11T01:33:17.237Z,83.54
2022-09-11T01:35:57.176Z,83.59
2022-09-11T01:38:33.855Z,83.82
2022-09-11T01:41:09.312Z,83.92
2022-09-11T01:43:45.343Z,84.13
2022-09-11T01:46:23.145Z,84.26
2022-09-11T01:49:01.497Z,84.00
2022-09-11T01:51:35.248Z,83.90
2022-09-11T01:54:10.401Z,83.93
2022-09-11T01:56:45.759Z,83.92
2022-09-11T01:59:28.051Z,83.94
2022-09-11T02:02:06.786Z,83.99
2022-09-11T02:04:41.011Z,83.74
2022-09-11T02:07:16.495Z,83.76
2022-09-11T02:09:53.674Z,83.96
2022-09-11T02:12:28.478Z,83.82
2022-09-11T02:14:59.368Z,83.79
2022-09-11T02:17:41.523Z,83.96
2022-09-11T02:20:12.419Z,83.68
2022-09-11T02:22:42.233Z,83.86
2022-09-11T02:25:11.973Z,83.78
2022-09-11T02:27:42.493Z,83.42
2022-09-11T02:30:14.813Z,83.68
2022-09-11T02:32:46.146Z,83.51
2022-09-11T02:35:16.440Z,83.65
2022-09-11T02:37:54.112Z,83.62
2022-09-11T02:40:47.668Z,83.76
2022-09-11T02:43:35.064Z,83.55
2022-09-11T02:46:41.972Z,83.63
2022-09-11T02:49:21.618Z,83.62
2022-09-11T02:52:01.596Z,83.77
2022-09-11T02:54:43.328Z,83.85
2022-09-11T02:57:19.892Z,83.71
2022-09-11T02:59:55.737Z,83.76
2022-09-11T03:02:28.852Z,83.92
2022-09-11T03:04:59.069Z,83.77
2022-09-11T03:07:28.588Z,83.74
2022-09-11T03:09:57.919Z,83.74
2022-09-11T03:12:28.657Z,83.91
2022-09-11T03:14:58.464Z,83.79
2022-09-11T03:17:29.203Z,83.79
2022-09-11T03:19:58.695Z,84.14
2022-09-11T03:22:27.918Z,84.17
2022-09-11T03:24:57.194Z,83.99
2022-09-11T03:27:28.574Z,83.95
2022-09-11T03:29:58.035Z,84.13
2022-09-11T03:32:28.650Z,84.36
2022-09-11T03:35:01.281Z,84.30
2022-09-11T03:37:33.839Z,84.57
2022-09-11T03:40:04.124Z,84.24
2022-09-11T03:42:33.543Z,84.25
2022-09-11T03:45:02.903Z,84.29
2022-09-11T03:47:34.100Z,84.10
2022-09-11T03:50:03.302Z,84.11
2022-09-11T03:52:32.533Z,84.16
2022-09-11T03:55:01.999Z,84.13
2022-09-11T03:57:33.818Z,84.18
2022-09-11T04:00:05.171Z,84.07
2022-09-11T04:02:50.807Z,84.27
2022-09-11T04:05:40.590Z,84.35
2022-09-11T04:08:12.058Z,84.47
2022-09-11T04:10:43.368Z,84.35
2022-09-11T04:13:12.815Z,84.59
2022-09-11T04:15:42.706Z,84.47
2022-09-11T04:18:14.048Z,84.47
2022-09-11T04:20:43.635Z,84.59
2022-09-11T04:23:14.268Z,84.57
2022-09-11T04:25:46.039Z,84.27
2022-09-11T04:28:15.674Z,84.41
2022-09-11T04:30:44.953Z,84.23
2022-09-11T04:33:16.424Z,84.28
2022-09-11T04:35:46.011Z,84.19
2022-09-11T04:38:15.339Z,84.26
2022-09-11T04:40:45.221Z,84.20
2022-09-11T04:43:17.431Z,84.39
2022-09-11T04:45:47.424Z,84.29
2022-09-11T04:48:18.297Z,84.40
2022-09-11T04:50:48.284Z,84.24
2022-09-11T04:53:25.035Z,84.30
2022-09-11T04:56:01.821Z,84.35
2022-09-11T04:58:32.968Z,84.67
2022-09-11T05:01:02.816Z,84.46
2022-09-11T05:03:33.571Z,84.17
2022-09-11T05:06:06.784Z,84.23
2022-09-11T05:08:36.791Z,84.24
2022-09-11T05:11:08.474Z,83.91
2022-09-11T05:13:37.703Z,84.18
2022-09-11T05:16:09.397Z,83.88
2022-09-11T05:18:41.513Z,83.86
2022-09-11T05:21:14.673Z,83.99
2022-09-11T05:23:48.072Z,83.73
2022-09-11T05:26:19.796Z,83.77
2022-09-11T05:28:49.603Z,83.74
2022-09-11T05:31:20.363Z,83.77
2022-09-11T05:33:52.048Z,83.57
2022-09-11T05:36:21.308Z,83.48
2022-09-11T05:38:51.219Z,83.19
2022-09-11T05:41:22.302Z,83.34
2022-09-11T05:43:51.513Z,83.32
2022-09-11T05:46:22.672Z,83.33
2022-09-11T05:48:59.252Z,83.43
2022-09-11T05:51:30.108Z,83.19
2022-09-11T05:54:02.172Z,83.37
2022-09-11T05:56:32.116Z,83.00
2022-09-11T05:59:05.455Z,82.93
2022-09-11T06:01:39.000Z,82.93
2022-09-11T06:04:19.789Z,83.01
2022-09-11T06:06:51.336Z,82.89
2022-09-11T06:09:22.019Z,82.81
2022-09-11T06:11:51.595Z,82.76
2022-09-11T06:14:21.545Z,82.65
2022-09-11T06:16:57.013Z,82.84
2022-09-11T06:19:29.188Z,82.82
2022-09-11T06:21:58.926Z,82.77
2022-09-11T06:24:37.856Z,82.79
2022-09-11T06:27:07.833Z,82.46
2022-09-11T06:29:40.458Z,82.39
2022-09-11T06:32:09.726Z,82.51
2022-09-11T06:34:42.774Z,82.86
2022-09-11T06:37:15.280Z,82.54
2022-09-11T06:39:44.936Z,82.24
2022-09-11T06:42:20.977Z,82.31
2022-09-11T06:44:52.091Z,82.33
2022-09-11T06:47:22.697Z,82.14
2022-09-11T06:49:53.672Z,82.35
2022-09-11T06:52:29.105Z,82.25
2022-09-11T06:55:21.792Z,82.51
2022-09-11T06:57:58.203Z,82.42
2022-09-11T07:00:31.121Z,82.45
2022-09-11T07:03:02.206Z,82.33
2022-09-11T07:05:34.241Z,82.22
2022-09-11T07:08:05.499Z,82.33
2022-09-11T07:10:38.265Z,82.24
2022-09-11T07:13:07.510Z,82.34
2022-09-11T07:15:36.874Z,82.08
2022-09-11T07:18:06.801Z,82.23
2022-09-11T07:20:39.977Z,81.95
2022-09-11T07:23:09.740Z,81.29
2022-09-11T07:25:40.455Z,80.86
2022-09-11T07:28:12.306Z,80.88
2022-09-11T07:30:42.344Z,80.59
2022-09-11T07:33:12.009Z,80.30
2022-09-11T07:35:42.824Z,79.75
2022-09-11T07:38:13.023Z,79.78
2022-09-11T07:40:44.158Z,79.57
2022-09-11T07:43:14.852Z,79.34
2022-09-11T07:45:43.843Z,79.14
2022-09-11T07:48:13.599Z,79.07
2022-09-11T07:50:44.473Z,78.77
2022-09-11T07:53:13.718Z,78.46
2022-09-11T07:55:43.762Z,78.01
2022-09-11T07:58:13.592Z,77.22
2022-09-11T08:00:43.149Z,76.72
2022-09-11T08:03:20.216Z,76.46
2022-09-11T08:05:50.892Z,76.30
2022-09-11T08:08:21.181Z,76.06
2022-09-11T08:10:51.261Z,75.52
2022-09-11T08:13:20.499Z,75.54
2022-09-11T08:15:50.481Z,75.13
2022-09-11T08:18:21.887Z,74.58
2022-09-11T08:20:54.440Z,74.33
2022-09-11T08:23:23.626Z,73.91
2022-09-11T08:25:54.293Z,72.94
2022-09-11T08:28:24.006Z,72.31
2022-09-11T08:30:59.221Z,72.01
2022-09-11T08:33:28.527Z,72.15
2022-09-11T08:36:02.190Z,72.10
2022-09-11T08:38:32.060Z,71.89
2022-09-11T08:41:12.105Z,71.74
2022-09-11T08:43:50.841Z,71.21
2022-09-11T08:46:23.161Z,70.46
2022-09-11T08:49:02.283Z,69.98
2022-09-11T08:51:35.430Z,69.87
2022-09-11T08:54:06.730Z,69.10
2022-09-11T08:56:40.953Z,68.31
2022-09-11T08:59:20.254Z,67.48
2022-09-11T09:01:59.685Z,67.49
2022-09-11T09:04:44.522Z,67.29
2022-09-11T09:07:26.634Z,67.07
2022-09-11T09:10:04.479Z,66.64
2022-09-11T09:12:45.153Z,66.00
2022-09-11T09:15:29.186Z,64.91
2022-09-11T09:18:03.182Z,64.77
2022-09-11T09:20:37.321Z,64.82
2022-09-11T09:23:14.935Z,65.02
2022-09-11T09:25:46.805Z,64.23
2022-09-11T09:28:21.356Z,64.55
2022-09-11T09:30:54.524Z,63.73
2022-09-11T09:33:33.799Z,63.79
2022-09-11T09:36:16.008Z,63.32
2022-09-11T09:38:48.941Z,63.29
2022-09-11T09:41:44.050Z,62.90
2022-09-11T09:44:24.016Z,62.16
2022-09-11T09:46:55.625Z,61.92
2022-09-11T09:49:28.667Z,61.91
2022-09-11T09:52:04.082Z,61.86
2022-09-11T09:54:37.123Z,61.46
2022-09-11T09:57:08.658Z,61.38
2022-09-11T09:59:43.039Z,60.87
2022-09-11T10:02:12.454Z,59.79
2022-09-11T10:04:42.191Z,60.07
2022-09-11T10:07:14.198Z,59.59
2022-09-11T10:09:51.554Z,59.30
2022-09-11T10:12:24.376Z,59.39
2022-09-11T10:14:57.530Z,58.48
2022-09-11T10:17:35.227Z,57.92
2022-09-11T10:20:26.028Z,57.63
2022-09-11T10:22:56.716Z,57.91
2022-09-11T10:25:30.166Z,57.67
2022-09-11T10:28:06.142Z,57.94
2022-09-11T10:30:39.008Z,57.39
2022-09-11T10:33:18.950Z,56.87
2022-09-11T10:35:51.160Z,56.27
2022-09-11T10:38:21.853Z,56.82
2022-09-11T10:41:07.934Z,56.57
2022-09-11T10:43:52.176Z,56.59
2022-09-11T10:46:30.307Z,55.87
2022-09-11T10:49:01.468Z,55.41
2022-09-11T10:51:32.867Z,55.44
2022-09-11T10:54:23.320Z,55.52
2022-09-11T10:57:05.336Z,54.56
2022-09-11T10:59:42.566Z,54.13
2022-09-11T11:02:21.436Z,53.16
2022-09-11T11:04:51.149Z,50.02
2022-09-11T11:07:36.522Z,48.28
2022-09-11T11:10:19.884Z,45.89
2022-09-11T11:13:05.452Z,46.05
2022-09-11T11:16:03.651Z,44.90
2022-09-11T11:18:59.866Z,45.96
2022-09-11T11:21:41.688Z,46.45
2022-09-11T11:24:25.476Z,47.18
2022-09-11T11:27:11.108Z,47.52
2022-09-11T11:30:04.757Z,47.94
2022-09-11T11:33:17.367Z,47.80
2022-09-11T11:35:59.121Z,48.63
2022-09-11T11:38:35.678Z,48.76
2022-09-11T11:41:10.727Z,48.57
2022-09-11T11:43:43.535Z,48.98
2022-09-11T11:46:19.465Z,48.50
2022-09-11T11:48:54.869Z,48.55
2022-09-11T11:51:49.187Z,48.80
2022-09-11T11:54:26.716Z,49.16
2022-09-11T11:57:01.445Z,49.32
2022-09-11T11:59:37.071Z,49.11
2022-09-11T12:02:17.726Z,49.12
2022-09-11T12:04:51.646Z,48.69
2022-09-11T12:07:25.728Z,48.70
2022-09-11T12:09:57.418Z,48.92
2022-09-11T12:12:32.403Z,48.94
2022-09-11T12:15:07.494Z,48.50
2022-09-11T12:17:39.995Z,48.85
2022-09-11T12:20:33.347Z,49.19
2022-09-11T12:23:03.251Z,49.19
2022-09-11T12:26:05.076Z,48.57
2022-09-11T12:28:35.832Z,48.56
2022-09-11T12:31:07.437Z,48.57
2022-09-11T12:33:57.648Z,48.64
2022-09-11T12:36:48.094Z,48.59
2022-09-11T12:39:26.032Z,48.81
2022-09-11T12:42:27.135Z,48.99
2022-09-11T12:45:00.808Z,48.24
2022-09-11T12:47:36.640Z,48.58
2022-09-11T12:50:28.143Z,48.55
2022-09-11T12:53:17.877Z,49.04
2022-09-11T12:56:01.892Z,48.97
2022-09-11T12:58:47.526Z,48.94
2022-09-11T13:01:27.238Z,48.85
2022-09-11T13:04:03.335Z,49.17
2022-09-11T13:06:44.501Z,49.09
2022-09-11T13:09:22.950Z,49.23
2022-09-11T13:11:54.921Z,49.51
2022-09-11T13:14:52.889Z,49.51
2022-09-11T13:17:30.361Z,49.65
2022-09-11T13:20:22.746Z,49.20
2022-09-11T13:22:58.517Z,49.57
2022-09-11T13:25:31.071Z,49.73
2022-09-11T13:28:02.867Z,49.83
2022-09-11T13:30:32.831Z,49.87
2022-09-11T13:33:07.925Z,49.81
2022-09-11T13:35:40.516Z,49.76
2022-09-11T13:38:16.744Z,49.93
2022-09-11T13:40:49.869Z,50.10
2022-09-11T13:43:22.107Z,49.96
2022-09-11T13:46:09.684Z,50.09
2022-09-11T13:48:39.205Z,50.22
2022-09-11T13:51:13.486Z,50.37
2022-09-11T13:53:47.053Z,50.42
2022-09-11T13:56:36.308Z,50.65
2022-09-11T13:59:42.972Z,50.12
2022-09-11T14:02:45.092Z,50.25
2022-09-11T14:05:20.830Z,50.34
2022-09-11T14:07:59.844Z,50.43
2022-09-11T14:10:34.193Z,50.25
2022-09-11T14:13:14.180Z,50.16
2022-09-11T14:15:49.127Z,50.27
2022-09-11T14:18:27.255Z,50.20
2022-09-11T14:21:01.095Z,50.03
2022-09-11T14:23:31.392Z,50.37
2022-09-11T14:26:14.287Z,50.37
2022-09-11T14:29:01.559Z,50.41
2022-09-11T14:31:35.145Z,50.19
2022-09-11T14:34:19.675Z,49.98
2022-09-11T14:36:53.464Z,50.22
2022-09-11T14:39:32.178Z,49.79
2022-09-11T14:42:04.136Z,49.79
2022-09-11T14:44:34.020Z,50.04
2022-09-11T14:47:03.942Z,50.01
2022-09-11T14:49:33.232Z,50.20
2022-09-11T14:52:03.272Z,50.04
2022-09-11T14:54:32.968Z,50.19
2022-09-11T14:57:04.104Z,50.06
2022-09-11T14:59:33.620Z,50.15
2022-09-11T15:02:03.395Z,50.03
2022-09-11T15:04:42.236Z,50.07
2022-09-11T15:07:12.971Z,50.04
2022-09-11T15:09:42.837Z,50.32
2022-09-11T15:12:14.945Z,50.33
2022-09-11T15:14:56.283Z,50.43
2022-09-11T15:17:31.630Z,50.54
2022-09-11T15:20:01.175Z,50.99
2022-09-11T15:22:35.394Z,51.21
2022-09-11T15:25:05.131Z,51.53
2022-09-11T15:27:36.690Z,51.10
2022-09-11T15:30:06.875Z,51.25
2022-09-11T15:32:36.332Z,51.49
2022-09-11T15:35:06.225Z,51.66
2022-09-11T15:37:35.534Z,51.98
2022-09-11T15:40:05.740Z,52.20
2022-09-11T15:42:39.640Z,52.55
2022-09-11T15:45:11.101Z,52.97
2022-09-11T15:47:40.943Z,52.95
2022-09-11T15:50:10.543Z,53.13
2022-09-11T15:52:43.962Z,53.14
2022-09-11T15:55:13.479Z,53.19
2022-09-11T15:57:44.235Z,53.33
2022-09-11T16:00:15.246Z,53.29
2022-09-11T16:02:45.725Z,53.19
2022-09-11T16:05:15.662Z,53.37
2022-09-11T16:07:45.049Z,53.53
2022-09-11T16:10:14.667Z,53.79
2022-09-11T16:12:46.390Z,53.81
2022-09-11T16:15:15.942Z,53.98
2022-09-11T16:17:45.328Z,54.46
2022-09-11T16:20:15.363Z,54.64
2022-09-11T16:22:45.515Z,54.90
2022-09-11T16:25:14.787Z,55.21
2022-09-11T16:27:45.468Z,55.43
2022-09-11T16:30:41.692Z,55.74
2022-09-11T16:33:04.292Z,55.77
2022-09-11T16:35:34.138Z,56.07
2022-09-11T16:38:03.805Z,56.04
2022-09-11T16:40:33.294Z,56.53
2022-09-11T16:43:04.167Z,56.62
2022-09-11T16:45:34.729Z,56.60
2022-09-11T16:48:04.985Z,56.87
2022-09-11T16:50:34.203Z,57.11
2022-09-11T16:53:03.376Z,57.07
2022-09-11T16:55:33.254Z,57.36
2022-09-11T16:58:03.949Z,57.16
2022-09-11T17:00:33.522Z,57.32
2022-09-11T17:03:02.812Z,57.60
2022-09-11T17:20:57.161Z,58.54
2022-09-11T17:23:28.270Z,58.94
2022-09-11T17:25:57.356Z,59.00
2022-09-11T17:28:27.636Z,59.15
2022-09-11T17:31:01.434Z,59.14
2022-09-11T17:33:32.237Z,59.46
2022-09-11T17:36:01.801Z,59.50
2022-09-11T17:38:32.758Z,59.54
2022-09-11T17:41:03.921Z,59.84
2022-09-11T17:43:34.297Z,59.74
2022-09-11T17:46:03.677Z,59.89
2022-09-11T17:48:32.823Z,60.32
2022-09-11T17:51:04.028Z,60.28
2022-09-11T17:53:38.562Z,60.69
2022-09-11T17:56:10.773Z,60.88
2022-09-11T17:58:40.628Z,60.69
2022-09-11T18:01:13.664Z,60.94
2022-09-11T18:03:50.743Z,61.25
2022-09-11T18:06:28.385Z,61.25
2022-09-11T18:09:01.916Z,61.45
2022-09-11T18:11:31.843Z,61.53
2022-09-11T18:14:01.236Z,61.62
2022-09-11T18:16:30.366Z,61.73
2022-09-11T18:18:59.799Z,61.83
2022-09-11T18:21:29.184Z,61.90
2022-09-11T18:24:00.495Z,61.87
2022-09-11T18:26:32.177Z,62.25
2022-09-11T18:29:02.563Z,62.41
2022-09-11T18:31:33.155Z,62.59
2022-09-11T18:34:03.075Z,63.02
2022-09-11T18:36:33.337Z,63.06
2022-09-11T18:39:04.438Z,63.10
2022-09-11T18:41:35.347Z,63.20
2022-09-11T18:44:07.319Z,63.22
2022-09-11T18:46:37.361Z,63.53
2022-09-11T18:49:06.790Z,63.45
2022-09-11T18:51:36.303Z,63.72
2022-09-11T18:54:07.087Z,63.98
2022-09-11T18:56:36.825Z,64.12
2022-09-11T18:59:06.107Z,64.36
2022-09-11T19:01:36.196Z,64.39
2022-09-11T19:04:10.189Z,64.39
2022-09-11T19:06:41.106Z,64.41
2022-09-11T19:09:12.945Z,64.33
2022-09-11T19:11:42.915Z,64.52
2022-09-11T19:14:13.646Z,64.83
2022-09-11T19:16:42.993Z,65.17
2022-09-11T19:19:12.478Z,65.39
2022-09-11T19:21:41.521Z,65.33
2022-09-11T19:24:14.071Z,65.64
2022-09-11T19:26:45.635Z,65.57
2022-09-11T19:29:15.907Z,65.33
2022-09-11T19:31:45.918Z,65.43
2022-09-11T19:34:15.945Z,65.62
2022-09-11T19:36:45.244Z,65.58
2022-09-11T19:39:16.088Z,65.85
2022-09-11T19:41:45.231Z,65.92
2022-09-11T19:44:15.490Z,66.40
2022-09-11T19:46:47.065Z,66.61
2022-09-11T19:49:16.422Z,66.84
2022-09-11T19:51:45.707Z,66.90
2022-09-11T19:54:16.511Z,67.09
2022-09-11T19:56:46.126Z,67.19
2022-09-11T19:59:15.646Z,67.65
2022-09-11T20:01:44.827Z,67.42
2022-09-11T20:04:15.794Z,67.41
2022-09-11T20:09:30.320Z,68.02
2022-09-11T20:12:02.857Z,67.82
2022-09-11T20:14:32.231Z,67.74
2022-09-11T20:17:01.688Z,67.77
2022-09-11T20:19:31.106Z,67.82
2022-09-11T20:22:00.733Z,67.92
2022-09-11T20:24:30.240Z,68.08
2022-09-11T20:27:00.428Z,68.33
2022-09-11T20:29:30.912Z,68.10
2022-09-11T20:32:00.767Z,68.46
2022-09-11T20:34:30.033Z,68.55
2022-09-11T20:37:00.866Z,68.51
2022-09-11T20:39:30.335Z,68.49
2022-09-11T20:42:00.600Z,68.35
2022-09-11T20:44:36.249Z,68.51
2022-09-11T20:47:06.367Z,68.60
2022-09-11T20:49:35.498Z,68.95
2022-09-11T20:52:04.800Z,68.70
2022-09-11T20:54:34.122Z,68.79
2022-09-11T20:57:03.827Z,68.89
2022-09-11T20:59:34.565Z,68.57
2022-09-11T21:02:03.869Z,69.15
2022-09-11T21:04:33.006Z,69.31
2022-09-11T21:07:02.318Z,69.54
2022-09-11T21:09:32.097Z,69.64
2022-09-11T21:12:01.224Z,69.47
2022-09-11T21:14:30.450Z,69.58
2022-09-11T21:17:02.230Z,69.58
2022-09-11T21:19:31.398Z,70.19
2022-09-11T21:22:00.676Z,70.02
2022-09-11T21:24:29.760Z,69.83
2022-09-11T21:26:58.941Z,70.00
2022-09-11T21:29:28.304Z,70.01
2022-09-11T21:31:57.347Z,70.19
2022-09-11T21:34:27.905Z,70.04
2022-09-11T21:36:57.241Z,69.99
2022-09-11T21:39:26.380Z,70.02
2022-09-11T21:41:55.701Z,70.41
2022-09-11T21:44:24.720Z,70.28
2022-09-11T21:46:53.769Z,70.29
2022-09-11T21:49:23.184Z,70.23
2022-09-11T21:51:53.626Z,70.27
2022-09-11T21:54:22.709Z,70.24
2022-09-11T21:56:52.157Z,70.34
2022-09-11T21:59:21.316Z,70.58
2022-09-11T22:01:50.475Z,70.89
2022-09-11T22:04:19.804Z,71.11
2022-09-11T22:06:48.858Z,71.32
2022-09-11T22:09:20.825Z,71.17
2022-09-11T22:11:50.258Z,71.17
2022-09-11T22:14:20.338Z,71.60
2022-09-11T22:16:49.371Z,71.49
2022-09-11T22:19:18.681Z,71.56
2022-09-11T22:21:49.897Z,71.46
2022-09-11T22:24:20.719Z,71.50
2022-09-11T22:26:49.846Z,71.58
2022-09-11T22:29:18.905Z,71.45
2022-09-11T22:31:48.226Z,71.79
2022-09-11T22:34:17.862Z,71.58
2022-09-11T22:36:46.896Z,71.86
2022-09-11T22:39:16.472Z,72.02
2022-09-11T22:41:46.914Z,71.79
2022-09-11T22:44:16.167Z,72.31
2022-09-11T22:46:48.738Z,72.24
2022-09-11T22:49:18.112Z,72.31
2022-09-11T22:51:47.359Z,72.16
2022-09-11T22:54:16.795Z,72.17
2022-09-11T22:56:47.546Z,72.02
2022-09-11T22:59:17.324Z,72.26
2022-09-11T23:01:47.680Z,72.40
2022-09-11T23:04:16.877Z,72.41
2022-09-11T23:07:03.517Z,72.57
2022-09-11T23:09:32.654Z,72.56
2022-09-11T23:12:03.609Z,72.54
2022-09-11T23:14:32.674Z,72.34
2022-09-11T23:17:02.050Z,72.24
2022-09-11T23:19:32.617Z,72.79
2022-09-11T23:22:01.649Z,72.74
2022-09-11T23:24:30.835Z,72.50
2022-09-11T23:27:00.082Z,72.90
2022-09-11T23:29:30.732Z,72.71
2022-09-11T23:31:59.802Z,72.65
2022-09-11T23:34:29.090Z,72.68
2022-09-11T23:36:58.202Z,72.47
2022-09-11T23:39:27.337Z,72.73
2022-09-11T23:41:56.558Z,72.36
2022-09-11T23:44:25.575Z,72.55
2022-09-11T23:46:56.252Z,72.70
2022-09-11T23:49:25.459Z,72.86
2022-09-11T23:51:54.611Z,72.68
2022-09-11T23:54:23.788Z,72.71
2022-09-11T23:56:52.974Z,72.73
2022-09-11T23:59:22.203Z,72.76
